createdAt,value
2023-04-02T00:14:26.440Z,6.6
2023-04-02T00:29:26.430Z,6.4
2023-04-02T00:44:26.425Z,6.2
2023-04-02T00:59:26.476Z,6.1
2023-04-02T01:14:26.429Z,6
2023-04-02T01:29:26.426Z,5.9
2023-04-02T01:44:26.426Z,5.8
2023-04-02T01:59:26.453Z,5.6
2023-04-02T02:14:26.425Z,5.5
2023-04-02T02:29:26.426Z,5.5
2023-04-02T02:44:26.580Z,5.3
2023-04-02T02:59:26.427Z,5.2
2023-04-02T03:14:26.439Z,5.2
2023-04-02T03:29:26.511Z,5.1
2023-04-02T03:44:26.438Z,4.8
2023-04-02T03:59:26.443Z,4.8
2023-04-02T04:14:26.425Z,4.8
2023-04-02T04:29:26.428Z,4.7
2023-04-02T04:44:26.423Z,4.7
2023-04-02T04:59:26.419Z,4.6
2023-04-02T05:14:26.417Z,4.6
2023-04-02T05:29:26.403Z,4.4
2023-04-02T05:44:26.429Z,4.3
2023-04-02T05:59:26.410Z,4.2
2023-04-02T06:14:26.430Z,4.2
2023-04-02T06:29:26.426Z,4.1
2023-04-02T06:44:26.434Z,4.1
2023-04-02T06:59:26.430Z,3.9
2023-04-02T07:14:26.381Z,3.8
2023-04-02T07:29:26.419Z,3.8
2023-04-02T07:44:26.410Z,3.8
2023-04-02T07:59:26.443Z,3.8
2023-04-02T08:14:26.433Z,3.6
2023-04-02T08:29:26.446Z,3.6
2023-04-02T08:44:26.432Z,3.6
2023-04-02T08:59:26.365Z,3.4
2023-04-02T09:14:26.414Z,3.4
2023-04-02T09:29:26.434Z,3.6
2023-04-02T09:44:26.456Z,3.5
2023-04-02T09:59:26.426Z,3.7
2023-04-02T10:14:26.438Z,3.9
2023-04-02T10:29:26.441Z,3.9
2023-04-02T10:44:26.420Z,3.8
2023-04-02T10:59:26.426Z,3.9
2023-04-02T11:14:26.433Z,4.2
2023-04-02T11:29:26.329Z,4.1
2023-04-02T11:44:26.406Z,4.4
2023-04-02T11:59:26.435Z,4.6
2023-04-02T12:14:26.426Z,5.2
2023-04-02T12:29:26.492Z,5.4
2023-04-02T12:44:26.401Z,5.4
2023-04-02T12:59:26.405Z,5.1
2023-04-02T13:14:26.364Z,5.2
2023-04-02T13:29:26.441Z,5.6
2023-04-02T13:44:26.413Z,5.6
2023-04-02T13:59:26.415Z,5.6
2023-04-02T14:14:26.433Z,5.6
2023-04-02T14:29:28.851Z,5.6
2023-04-02T14:44:26.447Z,5.6
2023-04-02T14:59:26.409Z,5.6
2023-04-02T15:14:26.387Z,5.6
2023-04-02T15:29:29.521Z,5.6
2023-04-02T15:44:26.418Z,5.4
2023-04-02T15:59:26.407Z,5.3
2023-04-02T16:14:26.458Z,5.2
2023-04-02T16:29:26.437Z,5.2
2023-04-02T16:44:26.435Z,5.3
2023-04-02T16:59:26.412Z,5.4
2023-04-02T17:14:27.264Z,5.4
2023-04-02T17:29:26.373Z,5.1
2023-04-02T17:44:26.413Z,4.8
2023-04-02T17:59:26.455Z,4.6
2023-04-02T18:14:26.442Z,4.4
2023-04-02T18:29:26.402Z,4.4
2023-04-02T18:44:26.409Z,4.5
2023-04-02T18:59:26.692Z,4.5
2023-04-02T19:14:26.413Z,4.5
2023-04-02T19:29:26.430Z,4.6
2023-04-02T19:44:26.352Z,4.6
2023-04-02T19:59:26.338Z,4.3
2023-04-02T20:14:26.443Z,3.9
2023-04-02T20:29:26.436Z,3.6
2023-04-02T20:44:26.451Z,3.4
2023-04-02T20:59:26.444Z,3.2
2023-04-02T21:14:26.451Z,2.9
2023-04-02T21:29:26.431Z,2.8
2023-04-02T21:44:26.419Z,2.6
2023-04-02T21:59:26.404Z,2.4
2023-04-02T22:14:26.432Z,2.2
2023-04-02T22:29:26.443Z,2.1
2023-04-02T22:44:26.455Z,2
2023-04-02T22:59:26.362Z,1.9
2023-04-02T23:14:26.421Z,1.8
2023-04-02T23:29:26.440Z,1.7
2023-04-02T23:44:26.429Z,1.6
2023-04-02T23:59:26.436Z,1.5
